Time;durP1;ratioP1;P1;durP2;ratioP2;P2;SDS_P1;SDS_P2;PMS_P1;PMS_P2;Temp;Humidity;BMP_temperature;BMP_pressure;BME280_temperature;BME280_humidity;BME280_pressure;Samples;Min_cycle;Max_cycle;Signal;HPM_P1;HPM_P2
2021/05/18 00:00:00;;;;;;;34.53;18.17;;;;;;;9.72;93.63;100317.41;5091376;28;20071;-65
2021/05/18 00:02:25;;;;;;;30.95;19.13;;;;;;;9.68;93.93;100316.91;5091277;28;20074;-65
2021/05/18 00:04:51;;;;;;;26.40;16.80;;;;;;;9.72;93.66;100315.56;5073439;28;20042;-65
2021/05/18 00:07:20;;;;;;;32.63;19.00;;;;;;;9.67;93.33;100320.56;5073177;28;20361;-65
2021/05/18 00:12:31;;;;;;;32.78;19.73;;;;;;;9.66;93.63;100318.06;5091110;28;20039;-65
2021/05/18 00:15:03;;;;;;;35.50;18.60;;;;;;;9.65;93.46;100327.06;5091225;28;20093;-65
2021/05/18 00:17:28;;;;;;;40.10;21.00;;;;;;;9.61;93.26;100337.22;5090563;28;20032;-65
2021/05/18 00:19:54;;;;;;;41.50;22.87;;;;;;;9.60;93.15;100326.72;5091262;28;20032;-65
2021/05/18 00:22:21;;;;;;;32.60;19.90;;;;;;;9.64;93.56;100333.38;5091223;28;20055;-65
2021/05/18 00:24:46;;;;;;;43.88;21.52;;;;;;;9.58;93.43;100339.41;5073359;28;20070;-65
2021/05/18 00:27:12;;;;;;;47.90;23.73;;;;;;;9.57;93.51;100341.22;5091056;28;20040;-65
2021/05/18 00:29:39;;;;;;;44.55;20.02;;;;;;;9.62;93.16;100338.03;5090899;28;20032;-65
2021/05/18 00:32:05;;;;;;;40.15;23.08;;;;;;;9.60;93.08;100343.56;5090961;28;20028;-65
2021/05/18 00:34:30;;;;;;;41.97;21.67;;;;;;;9.64;93.32;100344.06;5091005;28;20043;-65
2021/05/18 00:36:56;;;;;;;39.43;21.80;;;;;;;9.54;92.92;100341.56;5056431;28;20024;-65
2021/05/18 00:39:21;;;;;;;40.43;21.73;;;;;;;9.56;93.14;100342.22;5072848;28;20117;-65
2021/05/18 00:41:47;;;;;;;39.53;20.40;;;;;;;9.53;92.93;100347.91;5090901;28;20044;-65
2021/05/18 00:44:14;;;;;;;49.78;24.02;;;;;;;9.42;92.89;100346.38;5090807;28;20032;-65
2021/05/18 00:46:39;;;;;;;36.47;20.10;;;;;;;9.48;93.20;100355.53;5090745;28;20442;-66
2021/05/18 00:49:05;;;;;;;43.10;21.55;;;;;;;9.44;92.92;100356.88;5056298;28;20135;-66
2021/05/18 00:51:41;;;;;;;39.55;22.15;;;;;;;9.46;92.87;100361.03;5073207;28;20092;-66
2021/05/18 00:54:10;;;;;;;48.60;22.15;;;;;;;9.39;93.07;100360.03;5072897;28;20465;-66
2021/05/18 00:59:06;;;;;;;50.90;23.47;;;;;;;9.36;93.22;100364.84;5090289;28;20067;-65
2021/05/18 01:01:32;;;;;;;39.17;22.17;;;;;;;9.44;93.36;100378.19;5090857;28;20028;-65
2021/05/18 01:03:59;;;;;;;36.53;18.50;;;;;;;9.33;92.33;100375.84;5093683;28;20040;-65
2021/05/18 01:09:02;;;;;;;35.95;19.45;;;;;;;9.15;91.66;100390.09;5094211;28;20453;-65
2021/05/18 01:11:31;;;;;;;40.10;20.00;;;;;;;9.04;91.62;100398.41;5094249;28;20051;-65
2021/05/18 01:14:01;;;;;;;36.55;17.95;;;;;;;9.12;91.87;100395.75;5059927;28;20047;-65
2021/05/18 01:16:29;;;;;;;38.17;16.98;;;;;;;9.06;91.54;100401.72;5060229;28;20142;-65
2021/05/18 01:18:55;;;;;;;36.35;17.33;;;;;;;8.95;91.12;100400.19;5094040;28;20136;-65
2021/05/18 01:21:21;;;;;;;37.70;17.90;;;;;;;8.81;91.32;100414.94;5094444;28;20572;-65
2021/05/18 01:23:46;;;;;;;36.22;18.27;;;;;;;8.73;90.98;100412.22;5094198;28;20051;-65
2021/05/18 01:26:14;;;;;;;34.88;17.08;;;;;;;8.64;91.38;100413.19;5076148;28;20044;-65
2021/05/18 01:28:41;;;;;;;41.47;18.30;;;;;;;8.62;91.79;100417.84;5067803;28;20063;-66
2021/05/18 01:31:08;;;;;;;33.72;17.63;;;;;;;8.65;91.61;100421.00;5094178;28;20488;-66
2021/05/18 01:33:34;;;;;;;33.75;18.15;;;;;;;8.49;90.75;100423.56;5076367;28;20466;-66
2021/05/18 01:36:02;;;;;;;30.75;16.05;;;;;;;8.38;90.65;100427.31;5076380;28;20059;-66
2021/05/18 01:38:43;;;;;;;37.00;18.13;;;;;;;8.40;91.17;100432.47;5075943;28;20039;-66
2021/05/18 01:43:56;;;;;;;38.58;18.58;;;;;;;8.33;91.31;100440.22;5093813;28;20043;-65
2021/05/18 01:46:24;;;;;;;35.20;18.17;;;;;;;8.36;91.27;100439.94;5075989;28;20040;-65
2021/05/18 01:48:58;;;;;;;35.83;15.65;;;;;;;8.20;90.18;100453.09;5093543;28;20040;-65
2021/05/18 01:51:31;;;;;;;30.17;14.60;;;;;;;8.17;90.28;100448.06;5075977;28;20028;-65
2021/05/18 01:54:03;;;;;;;28.27;13.98;;;;;;;7.98;89.80;100454.41;5075687;28;20457;-65
2021/05/18 01:56:45;;;;;;;23.77;12.02;;;;;;;7.99;89.37;100451.59;5075971;28;20043;-65
2021/05/18 01:59:19;;;;;;;23.00;12.07;;;;;;;7.82;89.44;100457.75;5075569;28;20564;-65
2021/05/18 02:01:47;;;;;;;23.50;13.20;;;;;;;7.95;89.04;100458.19;5058929;28;20036;-65
2021/05/18 02:04:22;;;;;;;23.20;11.63;;;;;;;7.89;88.56;100456.16;5075614;28;20112;-65
2021/05/18 02:06:49;;;;;;;21.55;12.32;;;;;;;7.88;88.85;100464.28;5093578;28;20039;-65
2021/05/18 02:09:16;;;;;;;22.55;12.50;;;;;;;7.79;89.13;100458.03;5058805;28;20024;-65
2021/05/18 02:11:44;;;;;;;26.60;13.90;;;;;;;7.85;89.75;100460.09;5075487;28;20038;-65
2021/05/18 02:14:17;;;;;;;22.08;13.35;;;;;;;7.83;89.35;100470.06;5075358;28;20043;-65
2021/05/18 02:16:45;;;;;;;27.50;14.85;;;;;;;7.86;90.02;100474.22;5075656;28;20032;-65
2021/05/18 02:19:41;;;;;;;33.10;14.32;;;;;;;7.89;90.30;100468.59;5092832;28;20040;-65
2021/05/18 02:25:01;;;;;;;32.28;15.57;;;;;;;7.81;91.10;100478.16;5075218;28;19974;-65
2021/05/18 02:27:38;;;;;;;26.13;13.90;;;;;;;7.80;90.58;100473.03;5075022;28;20119;-65
2021/05/18 02:30:07;;;;;;;27.95;15.65;;;;;;;7.78;90.32;100480.31;5058304;28;20115;-65
2021/05/18 02:32:35;;;;;;;29.95;13.48;;;;;;;7.76;90.05;100482.28;5093154;28;20046;-65
2021/05/18 02:35:10;;;;;;;36.75;16.48;;;;;;;7.74;90.47;100484.25;5075076;28;20722;-65
2021/05/18 02:37:38;;;;;;;34.70;17.60;;;;;;;7.70;90.87;100494.34;5074772;28;20024;-65
2021/05/18 02:40:23;;;;;;;36.08;17.15;;;;;;;7.63;91.05;100485.28;5092689;28;20036;-65
2021/05/18 02:42:51;;;;;;;36.20;18.13;;;;;;;7.49;91.25;100483.13;5074960;28;20465;-65
2021/05/18 02:45:32;;;;;;;32.95;16.45;;;;;;;7.47;91.43;100488.63;5058035;28;20032;-65
2021/05/18 02:50:46;;;;;;;32.55;16.98;;;;;;;7.49;91.45;100497.28;5092577;28;20036;-65
2021/05/18 02:53:12;;;;;;;40.08;18.42;;;;;;;7.40;91.33;100492.84;5074897;28;20204;-65
2021/05/18 02:55:51;;;;;;;41.40;18.05;;;;;;;7.35;91.34;100492.44;5074582;28;20050;-65
2021/05/18 02:58:18;;;;;;;34.70;18.77;;;;;;;7.27;91.57;100501.16;5092286;28;20376;-65
2021/05/18 03:00:43;;;;;;;33.35;15.30;;;;;;;7.22;91.87;100500.75;5074525;28;20078;-65
2021/05/18 03:03:09;;;;;;;42.80;15.93;;;;;;;7.18;92.22;100500.19;5092327;28;20128;-65
2021/05/18 03:05:34;;;;;;;76.57;18.33;;;;;;;7.12;92.40;100511.41;5074373;28;20062;-65
2021/05/18 03:08:06;;;;;;;34.88;17.63;;;;;;;7.17;92.39;100510.97;5074164;28;20031;-65
2021/05/18 03:10:31;;;;;;;40.63;18.93;;;;;;;7.10;92.39;100504.59;5092237;28;20040;-65
2021/05/18 03:12:57;;;;;;;51.27;18.83;;;;;;;7.00;92.15;100512.59;5092177;28;20096;-65
2021/05/18 03:15:22;;;;;;;47.80;18.93;;;;;;;6.92;92.30;100501.84;5092066;28;20040;-65
2021/05/18 03:17:48;;;;;;;40.93;19.20;;;;;;;6.93;92.70;100516.78;5091823;28;20028;-65
2021/05/18 03:20:16;;;;;;;46.05;18.02;;;;;;;6.84;92.70;100515.84;5092279;28;20356;-65
2021/05/18 03:22:42;;;;;;;44.47;19.67;;;;;;;6.91;93.07;100524.91;5091986;28;20089;-65
2021/05/18 03:25:08;;;;;;;43.03;18.92;;;;;;;6.87;92.75;100528.00;5091500;28;20453;-65
2021/05/18 03:27:34;;;;;;;36.22;18.38;;;;;;;6.81;93.04;100528.53;5073582;28;20453;-65
2021/05/18 03:30:12;;;;;;;51.10;20.35;;;;;;;6.80;93.11;100527.72;5092023;28;20075;-65
2021/05/18 03:35:21;;;;;;;45.70;18.77;;;;;;;6.66;93.13;100536.13;5091795;28;20063;-65
2021/05/18 03:37:52;;;;;;;36.00;17.87;;;;;;;6.67;93.06;100533.34;5091444;28;20240;-65
2021/05/18 03:40:18;;;;;;;42.40;20.65;;;;;;;6.65;92.97;100529.13;5073902;28;20354;-65
2021/05/18 03:42:52;;;;;;;36.22;18.08;;;;;;;6.61;93.15;100533.91;5057249;28;20093;-65
2021/05/18 03:45:20;;;;;;;38.30;17.55;;;;;;;6.54;93.02;100530.97;5057098;28;20044;-65
2021/05/18 03:53:36;;;;;;;36.10;17.42;;;;;;;6.55;93.23;100543.28;5073670;28;20404;-65
2021/05/18 03:58:57;;;;;;;54.00;19.45;;;;;;;6.59;93.52;100545.63;5090991;28;20028;-65
2021/05/18 04:04:15;;;;;;;37.70;18.27;;;;;;;6.63;93.41;100553.16;5091505;28;20494;-65
2021/05/18 04:17:52;;;;;;;33.28;17.33;;;;;;;6.91;93.43;100556.75;5082573;28;20043;-65
2021/05/18 04:20:29;;;;;;;42.53;18.38;;;;;;;7.01;93.34;100548.75;5091313;28;20113;-65
2021/05/18 04:23:14;;;;;;;36.30;18.17;;;;;;;7.09;93.33;100554.16;5091062;28;20055;-65
2021/05/18 04:39:08;;;;;;;34.30;17.25;;;;;;;7.36;92.73;100571.97;5094953;28;20036;-65
2021/05/18 04:50:55;;;;;;;26.67;13.70;;;;;;;7.80;91.54;100579.31;5076892;28;20373;-65
2021/05/18 05:00:48;;;;;;;32.45;14.00;;;;;;;8.18;90.20;100588.03;5094791;28;20118;-65
2021/05/18 05:14:25;;;;;;;23.70;13.00;;;;;;;9.27;85.83;100585.94;5094429;28;20115;-65
2021/05/18 05:16:52;;;;;;;19.45;10.68;;;;;;;9.62;85.05;100592.13;5076879;28;20034;-65
2021/05/18 05:19:18;;;;;;;18.58;11.60;;;;;;;10.07;82.91;100596.28;5076235;28;20519;-65
2021/05/18 05:21:43;;;;;;;20.08;11.30;;;;;;;10.90;78.79;100600.69;5094254;28;20036;-66
2021/05/18 05:24:10;;;;;;;19.87;11.37;;;;;;;11.68;74.18;100596.50;5059741;28;20036;-65
2021/05/18 05:26:37;;;;;;;16.23;8.48;;;;;;;12.66;71.29;100595.94;5094308;28;20133;-66
2021/05/18 05:29:03;;;;;;;;;;;;;;;13.63;65.49;100591.69;5076563;28;20039;-65
2021/05/18 05:31:28;;;;;;;13.50;8.35;;;;;;;14.48;62.91;100593.69;5094353;28;19951;-66
2021/05/18 05:33:54;;;;;;;13.33;7.80;;;;;;;14.60;61.34;100606.63;5093812;28;20078;-66
2021/05/18 05:36:19;;;;;;;11.63;7.83;;;;;;;14.69;60.59;100602.81;5093948;28;20081;-66
2021/05/18 05:38:45;;;;;;;15.13;7.13;;;;;;;14.95;59.39;100594.94;5076010;28;20171;-66
2021/05/18 05:41:10;;;;;;;11.70;7.95;;;;;;;15.31;58.41;100593.97;5094009;28;20028;-67
2021/05/18 05:43:36;;;;;;;14.93;8.93;;;;;;;15.62;57.50;100600.78;5093777;28;20036;-67
2021/05/18 05:46:01;;;;;;;15.80;7.63;;;;;;;16.01;55.05;100602.84;5093963;28;20032;-67
2021/05/18 05:48:26;;;;;;;9.63;7.03;;;;;;;16.35;51.84;100606.47;5092935;28;20496;-67
2021/05/18 05:50:52;;;;;;;10.30;7.30;;;;;;;16.07;53.43;100611.97;5093719;28;20104;-67
2021/05/18 05:53:17;;;;;;;11.23;7.67;;;;;;;16.53;52.99;100610.41;5075972;28;20039;-67
2021/05/18 05:55:43;;;;;;;12.68;8.95;;;;;;;16.57;52.08;100608.97;5076080;28;20039;-66
2021/05/18 05:58:08;;;;;;;10.90;7.07;;;;;;;16.14;52.45;100612.81;5059083;28;20082;-66
2021/05/18 06:00:34;;;;;;;13.30;7.63;;;;;;;15.31;55.56;100615.50;5093746;28;20039;-67
2021/05/18 06:02:59;;;;;;;16.40;6.93;;;;;;;15.65;54.03;100610.31;5093588;28;20032;-68
2021/05/18 06:05:24;;;;;;;10.97;6.87;;;;;;;15.53;53.91;100610.88;5093335;28;20066;-67
2021/05/18 06:07:50;;;;;;;9.90;6.63;;;;;;;15.01;55.73;100614.88;5075528;28;20044;-66
2021/05/18 06:10:20;;;;;;;8.90;6.70;;;;;;;15.12;57.71;100611.63;5093504;28;20074;-66
2021/05/18 06:15:53;;;;;;;13.00;7.15;;;;;;;15.96;55.62;100616.06;5092966;28;20032;-66
2021/05/18 06:37:31;;;;;;;9.55;5.85;;;;;;;15.64;61.07;100633.72;5075173;28;20368;-66
2021/05/18 06:42:47;;;;;;;10.65;6.78;;;;;;;16.33;55.65;100640.03;5092933;28;20063;-66
2021/05/18 06:47:56;;;;;;;11.98;6.35;;;;;;;15.15;59.71;100648.88;5092086;28;20043;-66
2021/05/18 06:52:54;;;;;;;13.70;6.57;;;;;;;14.86;59.26;100655.25;5092675;28;20036;-66
2021/05/18 06:55:22;;;;;;;14.35;6.72;;;;;;;15.41;58.27;100652.81;5092361;28;20024;-66
2021/05/18 06:57:50;;;;;;;12.48;8.30;;;;;;;14.54;58.17;100651.22;5057820;28;20064;-66
2021/05/18 07:00:21;;;;;;;12.68;6.80;;;;;;;14.73;60.46;100650.59;5073727;28;20028;-66
2021/05/18 07:02:49;;;;;;;12.00;6.55;;;;;;;15.32;61.46;100649.44;5092521;28;20043;-65
2021/05/18 07:10:46;;;;;;;10.60;5.88;;;;;;;15.69;57.95;100654.63;5092281;28;20055;-66
2021/05/18 07:13:12;;;;;;;8.32;4.75;;;;;;;14.85;59.90;100663.53;5092255;28;20078;-65
2021/05/18 07:15:39;;;;;;;16.00;6.43;;;;;;;15.06;58.32;100666.19;5074484;28;20469;-65
2021/05/18 07:18:08;;;;;;;12.20;6.70;;;;;;;15.69;56.80;100660.03;5091708;28;20036;-65
2021/05/18 07:20:34;;;;;;;12.18;6.07;;;;;;;15.15;60.15;100654.28;5092135;28;20122;-65
2021/05/18 07:23:10;;;;;;;9.57;4.85;;;;;;;16.02;56.17;100665.59;5109088;27;20362;-64
2021/05/18 07:25:36;;;;;;;8.57;5.35;;;;;;;15.29;57.55;100657.91;5109168;28;20046;-65
2021/05/18 07:28:06;;;;;;;10.50;5.63;;;;;;;15.47;56.61;100662.75;5107816;28;20047;-65
2021/05/18 07:30:35;;;;;;;9.38;6.45;;;;;;;16.27;55.92;100671.28;5108998;28;20120;-64
2021/05/18 07:33:01;;;;;;;12.98;6.13;;;;;;;15.85;56.89;100667.81;5108684;28;20040;-65
2021/05/18 07:35:26;;;;;;;11.07;7.00;;;;;;;14.73;56.75;100682.84;5107967;28;20031;-65
2021/05/18 07:37:52;;;;;;;8.97;5.73;;;;;;;15.37;58.13;100683.81;5108183;28;20031;-65
2021/05/18 07:40:17;;;;;;;12.20;7.90;;;;;;;15.04;56.01;100681.69;5108795;28;20441;-65
2021/05/18 07:42:42;;;;;;;13.10;6.27;;;;;;;14.25;60.58;100679.78;5107837;28;20441;-65
2021/05/18 07:45:08;;;;;;;9.30;5.83;;;;;;;13.81;62.87;100687.88;5107476;28;20473;-64
2021/05/18 07:47:36;;;;;;;9.85;5.47;;;;;;;13.46;63.70;100691.09;5105734;28;20407;-65
2021/05/18 07:50:06;;;;;;;14.27;5.78;;;;;;;13.04;63.91;100684.41;5106002;28;20036;-64
2021/05/18 08:06:13;;;;;;;8.48;4.70;;;;;;;12.28;67.29;100695.97;5108144;28;20039;-64
2021/05/18 08:08:40;;;;;;;9.90;5.38;;;;;;;12.00;65.57;100702.59;5107908;28;20051;-64
2021/05/18 08:11:05;;;;;;;8.88;4.82;;;;;;;12.00;67.90;100699.06;5107020;28;20047;-64
2021/05/18 08:13:30;;;;;;;9.30;5.30;;;;;;;12.26;69.26;100698.78;5106717;28;20372;-64
2021/05/18 10:14:37;;;;;;;8.82;5.18;;;;;;;13.74;63.01;100717.28;5092074;28;20071;-65
2021/05/18 10:22:09;;;;;;;9.73;6.70;;;;;;;12.57;65.55;100733.63;5091799;28;20079;-65
2021/05/18 10:35:42;;;;;;;9.37;6.27;;;;;;;11.97;68.00;100742.25;5091906;28;20050;-65
2021/05/18 10:38:09;;;;;;;11.18;6.50;;;;;;;11.97;68.63;100739.56;5073599;28;20042;-65
2021/05/18 10:40:41;;;;;;;11.10;6.55;;;;;;;12.04;70.54;100743.22;5091735;28;20483;-65
2021/05/18 10:43:20;;;;;;;11.80;6.82;;;;;;;12.09;69.01;100740.03;5090698;28;20028;-65
2021/05/18 10:45:55;;;;;;;12.65;7.55;;;;;;;12.09;68.28;100745.38;5090661;28;20427;-65
2021/05/18 10:48:36;;;;;;;7.63;5.22;;;;;;;12.18;66.82;100739.81;5090254;28;20048;-65
2021/05/18 10:51:20;;;;;;;7.75;4.43;;;;;;;12.29;66.72;100748.47;5091657;28;20648;-65
2021/05/18 10:54:04;;;;;;;5.72;4.20;;;;;;;12.80;65.91;100752.38;5090595;28;20377;-65
2021/05/18 10:56:29;;;;;;;5.25;3.85;;;;;;;12.99;65.91;100747.59;5090349;28;20032;-65
2021/05/18 10:58:54;;;;;;;5.30;3.00;;;;;;;13.37;65.14;100753.00;5090094;28;20051;-65
2021/05/18 11:01:20;;;;;;;3.90;2.63;;;;;;;13.35;64.42;100750.53;5091312;28;20471;-65
2021/05/18 11:03:46;;;;;;;3.10;2.47;;;;;;;13.69;62.82;100765.31;5091448;28;20036;-65
2021/05/18 11:06:11;;;;;;;7.00;2.95;;;;;;;14.16;61.09;100758.78;5090545;28;20040;-65
2021/05/18 11:08:36;;;;;;;5.63;3.27;;;;;;;14.29;61.71;100761.63;5091066;28;20477;-65
2021/05/18 11:11:04;;;;;;;3.97;2.57;;;;;;;14.50;61.34;100757.38;5090442;28;20089;-65
2021/05/18 11:13:30;;;;;;;4.90;2.50;;;;;;;14.78;61.23;100754.81;5073416;28;20035;-65
2021/05/18 11:15:56;;;;;;;7.95;2.90;;;;;;;14.93;57.98;100760.16;5073310;28;20113;-65
2021/05/18 11:18:29;;;;;;;5.23;2.47;;;;;;;15.55;58.20;100748.72;5091014;28;20071;-65
2021/05/18 11:21:06;;;;;;;5.45;2.80;;;;;;;15.22;55.67;100753.84;5091121;28;20040;-65
2021/05/18 11:23:33;;;;;;;4.55;2.55;;;;;;;15.38;57.10;100744.63;5091183;28;20083;-65
2021/05/18 11:26:05;;;;;;;4.40;2.53;;;;;;;15.25;54.61;100752.63;5090408;28;20044;-65
2021/05/18 11:28:33;;;;;;;2.95;1.90;;;;;;;15.16;55.16;100752.72;5091281;28;20039;-65
2021/05/18 11:31:00;;;;;;;3.35;2.60;;;;;;;14.04;56.17;100758.41;5091170;28;20089;-65
2021/05/18 11:33:37;;;;;;;4.13;2.67;;;;;;;14.01;58.23;100757.94;5091059;28;20046;-65
2021/05/18 11:36:08;;;;;;;2.80;2.22;;;;;;;13.64;59.89;100765.03;5090209;28;20488;-65
2021/05/18 11:38:34;;;;;;;11.10;4.97;;;;;;;13.11;63.58;100762.25;5089714;28;20463;-65
2021/05/18 11:41:00;;;;;;;9.85;5.35;;;;;;;12.27;65.83;100763.88;5090032;28;20040;-65
2021/05/18 11:43:34;;;;;;;9.70;6.57;;;;;;;12.21;67.56;100771.59;5090061;28;20054;-65
2021/05/18 11:46:09;;;;;;;11.48;6.60;;;;;;;12.11;70.54;100765.59;5090101;28;20360;-65
2021/05/18 11:48:35;;;;;;;8.13;5.95;;;;;;;12.53;69.03;100761.75;5090653;28;20100;-65
2021/05/18 11:51:07;;;;;;;11.88;6.93;;;;;;;12.84;72.08;100779.69;5089968;28;20457;-65
2021/05/18 11:53:37;;;;;;;13.88;6.43;;;;;;;13.26;70.51;100773.03;5090004;28;20032;-72
2021/05/18 11:56:23;;;;;;;9.02;5.55;;;;;;;13.64;72.46;100778.44;5090211;28;20024;-72
2021/05/18 11:58:58;;;;;;;10.15;6.10;;;;;;;13.30;67.79;100777.88;5090536;28;20177;-72
2021/05/18 12:01:23;;;;;;;9.18;5.78;;;;;;;13.25;67.70;100784.75;5090749;28;20020;-73
2021/05/18 12:04:07;;;;;;;9.50;6.80;;;;;;;12.98;66.26;100784.28;5090640;28;20204;-73
2021/05/18 12:06:34;;;;;;;12.00;7.97;;;;;;;12.14;68.58;100775.97;5090865;28;20057;-72
2021/05/18 12:09:00;;;;;;;11.77;7.70;;;;;;;12.53;69.58;100779.69;5091822;28;20040;-72
2021/05/18 12:11:26;;;;;;;9.87;6.93;;;;;;;12.61;69.31;100785.81;5093698;28;20430;-72
2021/05/18 12:13:52;;;;;;;12.52;6.97;;;;;;;12.94;70.42;100791.00;5093443;28;20277;-72
2021/05/18 12:16:20;;;;;;;12.07;7.90;;;;;;;12.91;68.69;100791.34;5094418;28;20032;-73
2021/05/18 12:18:52;;;;;;;16.27;8.30;;;;;;;12.78;69.60;100793.75;5093165;28;20040;-72
2021/05/18 12:21:23;;;;;;;11.40;8.43;;;;;;;12.59;70.36;100785.16;5093299;28;20361;-72
2021/05/18 12:24:04;;;;;;;12.35;8.93;;;;;;;12.71;71.03;100787.44;5093347;28;20043;-71
2021/05/18 12:26:30;;;;;;;13.40;8.68;;;;;;;12.76;71.90;100785.94;5094288;28;20119;-72
2021/05/18 12:28:58;;;;;;;13.05;8.02;;;;;;;12.55;70.24;100789.22;5093033;28;20043;-73
2021/05/18 12:31:26;;;;;;;12.18;8.18;;;;;;;12.81;71.55;100788.91;5094299;28;20049;-73
2021/05/18 12:33:51;;;;;;;15.38;9.13;;;;;;;12.84;70.24;100798.44;5094304;28;20121;-73
2021/05/18 12:36:16;;;;;;;15.77;8.20;;;;;;;12.59;70.87;100785.16;5094216;28;20082;-73
2021/05/18 12:38:42;;;;;;;11.13;7.70;;;;;;;12.71;71.35;100787.44;5093921;28;20064;-73
2021/05/18 12:41:07;;;;;;;16.00;8.17;;;;;;;12.62;70.46;100784.00;5076074;28;20032;-73
2021/05/18 12:43:41;;;;;;;14.77;8.47;;;;;;;12.53;71.04;100782.34;5094069;28;20035;-73
2021/05/18 12:46:10;;;;;;;15.52;8.52;;;;;;;12.78;69.58;100788.41;5092845;28;20031;-73
2021/05/18 12:48:42;;;;;;;14.35;8.60;;;;;;;12.36;69.84;100794.94;5092655;28;20050;-73
2021/05/18 12:51:22;;;;;;;12.07;7.88;;;;;;;12.46;70.91;100790.25;5093852;28;20161;-73
2021/05/18 12:53:48;;;;;;;11.07;7.53;;;;;;;12.58;69.83;100794.19;5093690;28;20110;-73
2021/05/18 12:56:30;;;;;;;10.63;7.80;;;;;;;12.51;71.29;100787.06;5075927;28;20575;-74
2021/05/18 12:59:04;;;;;;;10.90;7.50;;;;;;;12.42;69.88;100787.06;5092372;28;20317;-73
2021/05/18 13:01:42;;;;;;;13.38;8.25;;;;;;;12.35;70.69;100785.25;5093510;28;20036;-73
2021/05/18 13:04:10;;;;;;;11.50;7.07;;;;;;;12.36;70.13;100786.94;5093519;28;20040;-73
2021/05/18 13:06:43;;;;;;;8.85;6.03;;;;;;;12.35;69.89;100778.06;5093652;28;20043;-73
2021/05/18 13:09:25;;;;;;;11.02;7.43;;;;;;;12.36;70.71;100789.59;5075450;28;20046;-74
2021/05/18 13:12:12;;;;;;;9.15;7.20;;;;;;;12.36;70.32;100789.59;5092403;28;20042;-73
2021/05/18 13:14:56;;;;;;;9.90;7.22;;;;;;;12.43;68.29;100790.56;5092260;28;20071;-73
2021/05/18 13:17:22;;;;;;;10.75;7.22;;;;;;;12.24;70.04;100786.47;5093426;28;20062;-74
2021/05/18 13:20:03;;;;;;;9.88;5.88;;;;;;;12.61;68.52;100793.84;5093089;28;20457;-73
2021/05/18 13:22:31;;;;;;;8.18;6.57;;;;;;;12.88;66.73;100778.31;5092162;28;20115;-73
2021/05/18 13:27:58;;;;;;;9.50;5.35;;;;;;;13.28;65.46;100782.59;5092893;28;20111;-73
2021/05/18 13:30:26;;;;;;;10.15;7.03;;;;;;;13.71;66.12;100784.75;5092712;28;20055;-73
2021/05/18 13:32:52;;;;;;;9.88;6.32;;;;;;;13.94;65.90;100780.16;5093064;28;20036;-74
2021/05/18 13:35:19;;;;;;;9.25;5.88;;;;;;;13.66;63.40;100776.41;5092080;28;20475;-72
2021/05/18 13:37:45;;;;;;;8.98;6.45;;;;;;;13.66;65.22;100779.09;5074636;28;20470;-73
2021/05/18 13:40:12;;;;;;;7.47;5.43;;;;;;;14.08;62.60;100781.19;5091951;28;20085;-73
2021/05/18 13:42:38;;;;;;;8.90;5.70;;;;;;;14.79;60.73;100777.97;5091781;28;20050;-73
2021/05/18 13:45:04;;;;;;;12.45;5.70;;;;;;;15.18;60.01;100779.44;5092892;28;20485;-73
2021/05/18 13:47:30;;;;;;;8.68;5.32;;;;;;;16.65;53.14;100773.22;5092455;28;20156;-73
2021/05/18 13:49:55;;;;;;;9.87;6.57;;;;;;;16.03;54.13;100772.28;5092645;28;20043;-73
2021/05/18 13:52:20;;;;;;;9.57;6.87;;;;;;;15.39;55.72;100776.72;5092757;28;20024;-72
2021/05/18 13:54:46;;;;;;;8.40;6.00;;;;;;;14.89;59.04;100785.72;5091739;28;20082;-73
2021/05/18 13:57:11;;;;;;;11.53;6.20;;;;;;;14.48;62.84;100779.03;5091546;28;20660;-73
2021/05/18 13:59:36;;;;;;;8.23;6.60;;;;;;;14.69;59.60;100777.47;5092272;28;20416;-73
2021/05/18 14:02:02;;;;;;;8.33;6.20;;;;;;;14.20;62.17;100788.78;5091433;28;20503;-73
2021/05/18 14:04:27;;;;;;;10.77;6.80;;;;;;;14.17;62.25;100783.78;5092348;28;20534;-73
2021/05/18 14:10:04;;;;;;;12.38;6.18;;;;;;;14.13;63.22;100794.06;5081682;28;20535;-73
2021/05/18 14:12:29;;;;;;;7.53;5.90;;;;;;;14.01;62.36;100790.16;5092194;28;20059;-73
2021/05/18 14:14:55;;;;;;;9.03;4.93;;;;;;;13.99;63.12;100794.88;5092061;28;20047;-73
2021/05/18 14:17:20;;;;;;;3.07;2.47;;;;;;;13.70;56.95;100789.28;5092312;28;20115;-72
2021/05/18 14:19:45;;;;;;;6.47;2.70;;;;;;;13.82;58.62;100787.00;5092021;28;20078;-73
2021/05/18 14:22:11;;;;;;;2.93;2.33;;;;;;;14.19;57.61;100781.72;5091047;28;20063;-73
2021/05/18 14:24:41;;;;;;;3.03;2.17;;;;;;;14.33;55.22;100792.47;5090695;28;20047;-65
2021/05/18 14:27:10;;;;;;;2.45;2.00;;;;;;;14.54;54.80;100780.19;5089393;28;20413;-65
2021/05/18 14:29:35;;;;;;;1.75;1.50;;;;;;;14.60;53.66;100776.72;5089885;28;20115;-65
2021/05/18 14:32:01;;;;;;;3.07;2.63;;;;;;;14.63;55.54;100784.41;5071923;28;20909;-65
2021/05/18 14:34:26;;;;;;;2.60;1.63;;;;;;;14.50;54.62;100786.91;5089284;28;20528;-66
2021/05/18 14:36:51;;;;;;;2.17;1.60;;;;;;;14.25;55.61;100781.00;5089164;28;20043;-66
2021/05/18 14:39:23;;;;;;;2.93;2.13;;;;;;;14.46;56.29;100778.38;5090274;28;20063;-65
2021/05/18 14:44:33;;;;;;;1.52;1.42;;;;;;;14.41;55.43;100785.34;5091439;28;20101;-65
2021/05/18 14:55:18;;;;;;;3.20;1.95;;;;;;;13.93;58.58;100794.59;5052561;28;20032;-65
2021/05/18 14:57:43;;;;;;;4.80;2.50;;;;;;;13.88;60.16;100788.94;5083595;28;20055;-65
2021/05/18 15:00:10;;;;;;;7.00;4.07;;;;;;;13.77;60.64;100789.38;5091466;28;20036;-65
2021/05/18 15:02:35;;;;;;;7.00;3.65;;;;;;;14.25;60.73;100784.50;5090400;28;20111;-65
2021/05/18 15:05:01;;;;;;;4.60;3.40;;;;;;;15.35;55.98;100786.22;5091281;28;20197;-65
2021/05/18 15:07:26;;;;;;;7.43;4.20;;;;;;;14.58;58.39;100778.75;5073429;28;20040;-65
2021/05/18 15:09:52;;;;;;;3.47;3.17;;;;;;;14.59;58.87;100777.75;5073311;28;20050;-65
2021/05/18 15:12:17;;;;;;;7.68;4.57;;;;;;;15.85;55.41;100778.19;5073512;28;20042;-65
2021/05/18 15:14:43;;;;;;;3.80;3.03;;;;;;;16.14;54.11;100781.69;5073312;28;20036;-66
2021/05/18 15:17:08;;;;;;;7.43;3.28;;;;;;;16.09;52.92;100779.56;5090391;28;20040;-66
2021/05/18 15:19:34;;;;;;;7.13;3.40;;;;;;;15.88;51.55;100785.84;5089837;28;20127;-66
2021/05/18 15:21:59;;;;;;;4.47;3.60;;;;;;;14.25;56.82;100786.38;5090071;28;20457;-66
2021/05/18 15:24:28;;;;;;;6.53;4.30;;;;;;;14.27;57.77;100787.00;5091106;28;20051;-65
2021/05/18 15:26:53;;;;;;;5.65;3.65;;;;;;;13.90;58.62;100781.53;5073280;28;20043;-66
2021/05/18 15:29:20;;;;;;;5.37;4.00;;;;;;;14.15;58.82;100784.78;5089826;28;20114;-65
2021/05/18 15:31:46;;;;;;;4.38;3.63;;;;;;;13.96;58.38;100796.06;5090157;28;20818;-66
2021/05/18 15:34:11;;;;;;;4.53;3.53;;;;;;;14.10;58.37;100789.88;5091007;28;20036;-65
2021/05/18 15:36:38;;;;;;;4.23;2.97;;;;;;;14.19;57.43;100798.69;5091151;28;20044;-65
2021/05/18 15:39:04;;;;;;;4.95;3.85;;;;;;;13.98;58.78;100785.13;5089882;28;20028;-65
2021/05/18 15:41:29;;;;;;;3.80;2.85;;;;;;;15.03;56.78;100784.88;5091029;28;20106;-65
2021/05/18 15:43:54;;;;;;;4.20;3.10;;;;;;;14.16;57.29;100793.66;5092314;28;20048;-66
2021/05/18 15:46:20;;;;;;;3.67;3.10;;;;;;;14.27;58.39;100795.91;5094206;28;20056;-65
2021/05/18 15:48:45;;;;;;;4.30;3.30;;;;;;;15.29;58.82;100795.06;5094682;28;20569;-65
2021/05/18 15:51:11;;;;;;;4.63;3.10;;;;;;;15.32;54.82;100796.53;5095058;28;20054;-65
2021/05/18 15:53:36;;;;;;;4.03;3.30;;;;;;;15.71;55.44;100800.63;5094940;28;20060;-65
2021/05/18 15:56:07;;;;;;;5.43;4.10;;;;;;;15.14;55.24;100802.34;5094883;28;20036;-65
2021/05/18 15:58:32;;;;;;;4.47;3.80;;;;;;;14.42;57.34;100806.66;5092909;28;20369;-65
2021/05/18 16:00:58;;;;;;;7.80;4.27;;;;;;;14.08;59.20;100796.47;5092395;28;20056;-66
2021/05/18 16:03:24;;;;;;;6.17;3.77;;;;;;;13.93;60.31;100805.34;5076218;28;20036;-65
2021/05/18 16:05:49;;;;;;;6.00;3.13;;;;;;;13.82;60.22;100805.78;5093115;28;20123;-65
2021/05/18 16:10:58;;;;;;;6.43;3.92;;;;;;;14.51;58.48;100802.81;5093016;28;20042;-66